createdAt,value
2023-10-10T00:00:56.158Z,4.30
2023-10-10T00:03:28.325Z,4.57
2023-10-10T00:05:59.618Z,3.90
2023-10-10T00:08:34.658Z,4.10
2023-10-10T00:11:10.282Z,4.30
2023-10-10T00:13:43.330Z,3.80
2023-10-10T00:16:12.649Z,4.77
2023-10-10T00:18:44.540Z,4.57
2023-10-10T00:21:18.511Z,3.83
2023-10-10T00:23:48.432Z,4.07
2023-10-10T00:26:17.049Z,5.10
2023-10-10T00:28:46.366Z,3.93
2023-10-10T00:31:19.684Z,4.80
2023-10-10T00:33:51.150Z,4.00
2023-10-10T00:36:23.495Z,3.70
2023-10-10T00:38:59.000Z,4.10
2023-10-10T00:41:27.924Z,3.90
2023-10-10T00:43:57.035Z,3.80
2023-10-10T00:46:29.411Z,4.03
2023-10-10T00:49:01.508Z,4.10
2023-10-10T00:51:32.765Z,4.30
2023-10-10T00:54:13.345Z,4.17
2023-10-10T00:56:45.187Z,3.80
2023-10-10T00:59:17.391Z,3.73
2023-10-10T01:01:46.927Z,4.37
2023-10-10T01:04:15.269Z,4.10
2023-10-10T01:06:43.312Z,3.40
2023-10-10T01:09:22.538Z,3.60
2023-10-10T01:11:51.027Z,4.10
2023-10-10T01:14:22.371Z,3.77
2023-10-10T01:16:59.224Z,4.63
2023-10-10T01:19:29.693Z,4.20
2023-10-10T01:22:00.638Z,3.80
2023-10-10T01:24:32.073Z,3.87
2023-10-10T01:27:06.083Z,3.90
2023-10-10T01:29:41.789Z,3.43
2023-10-10T01:32:12.024Z,3.47
2023-10-10T01:34:44.707Z,3.97
2023-10-10T01:37:21.799Z,3.17
2023-10-10T01:40:12.920Z,4.03
2023-10-10T01:42:46.155Z,3.53
2023-10-10T01:45:19.855Z,4.13
2023-10-10T01:47:58.673Z,3.57
2023-10-10T01:50:28.247Z,3.80
2023-10-10T01:52:58.864Z,3.83
2023-10-10T01:55:27.654Z,2.93
2023-10-10T01:57:58.762Z,3.90
2023-10-10T02:00:28.917Z,3.23
2023-10-10T02:02:58.071Z,3.47
2023-10-10T02:05:43.713Z,3.53
2023-10-10T02:08:18.008Z,3.67
2023-10-10T02:10:50.836Z,3.57
2023-10-10T02:13:20.882Z,3.50
2023-10-10T02:15:48.876Z,4.93
2023-10-10T02:18:24.966Z,3.73
2023-10-10T02:20:54.033Z,4.40
2023-10-10T02:23:32.222Z,4.10
2023-10-10T02:26:15.235Z,4.23
2023-10-10T02:28:48.513Z,3.23
2023-10-10T02:31:19.412Z,3.60
2023-10-10T02:33:52.713Z,3.80
2023-10-10T02:36:31.606Z,3.50
2023-10-10T02:39:20.020Z,3.60
2023-10-10T02:41:52.848Z,4.40
2023-10-10T02:44:41.510Z,3.70
2023-10-10T02:47:13.325Z,3.60
2023-10-10T02:49:43.142Z,3.20
2023-10-10T02:52:15.425Z,3.63
2023-10-10T02:54:55.034Z,4.00
2023-10-10T02:57:29.726Z,3.77
2023-10-10T03:03:00.532Z,3.73
2023-10-10T03:05:40.626Z,3.33
2023-10-10T03:08:14.815Z,3.13
2023-10-10T03:10:47.697Z,3.87
2023-10-10T03:13:28.953Z,4.20
2023-10-10T03:15:57.504Z,3.63
2023-10-10T03:18:36.210Z,4.20
2023-10-10T03:21:25.087Z,3.00
2023-10-10T03:23:57.809Z,3.63
2023-10-10T03:26:52.017Z,4.07
2023-10-10T03:29:37.770Z,4.43
2023-10-10T03:32:32.105Z,3.70
2023-10-10T03:35:07.255Z,3.20
2023-10-10T03:37:42.418Z,3.23
2023-10-10T03:40:31.336Z,3.30
2023-10-10T03:43:16.809Z,3.07
2023-10-10T03:46:02.432Z,3.33
2023-10-10T03:48:48.344Z,3.20
2023-10-10T03:51:35.384Z,4.13
2023-10-10T03:54:20.960Z,2.90
2023-10-10T03:57:06.542Z,3.43
2023-10-10T03:59:52.215Z,3.40
2023-10-10T04:02:37.497Z,3.23
2023-10-10T04:05:38.845Z,3.13
2023-10-10T04:08:25.735Z,3.57
2023-10-10T04:11:11.067Z,3.70
2023-10-10T04:13:56.541Z,2.83
2023-10-10T04:16:42.382Z,3.33
2023-10-10T04:19:27.899Z,3.60
2023-10-10T04:22:13.408Z,3.07
2023-10-10T04:25:02.386Z,3.50
2023-10-10T04:27:48.705Z,3.50
2023-10-10T04:30:34.338Z,3.60
2023-10-10T04:33:19.960Z,3.67
2023-10-10T04:36:05.361Z,3.93
2023-10-10T04:38:51.034Z,4.07
2023-10-10T04:41:37.956Z,5.30
2023-10-10T04:44:24.422Z,6.00
2023-10-10T04:47:09.985Z,4.77
2023-10-10T04:49:55.501Z,4.40
2023-10-10T04:52:41.300Z,4.20
2023-10-10T04:55:27.727Z,4.60
2023-10-10T04:58:14.765Z,4.57
2023-10-10T05:01:00.372Z,4.83
2023-10-10T05:03:45.983Z,4.70
2023-10-10T05:06:33.588Z,4.23
2023-10-10T05:09:20.904Z,4.10
2023-10-10T05:12:06.472Z,4.40
2023-10-10T05:14:53.376Z,4.20
2023-10-10T05:17:38.988Z,4.30
2023-10-10T05:20:26.516Z,4.67
2023-10-10T05:23:12.535Z,4.57
2023-10-10T05:25:42.460Z,3.60
2023-10-10T05:28:12.160Z,4.47
2023-10-10T05:30:45.910Z,3.70
2023-10-10T05:33:15.171Z,3.63
2023-10-10T05:35:48.554Z,4.40
2023-10-10T05:38:17.476Z,3.73
2023-10-10T05:40:48.324Z,4.10
2023-10-10T05:43:17.537Z,4.30
2023-10-10T05:45:48.808Z,4.20
2023-10-10T05:48:16.891Z,3.87
2023-10-10T05:50:44.912Z,3.90
2023-10-10T05:53:13.040Z,3.43
2023-10-10T05:55:41.948Z,3.10
2023-10-10T05:58:12.078Z,3.77
2023-10-10T06:00:42.765Z,4.20
2023-10-10T06:03:13.326Z,4.17
2023-10-10T06:05:45.198Z,4.40
2023-10-10T06:08:14.775Z,2.70
2023-10-10T06:10:42.967Z,3.47
2023-10-10T06:13:12.465Z,3.00
2023-10-10T06:15:41.235Z,3.70
2023-10-10T06:18:14.243Z,3.67
2023-10-10T06:23:17.127Z,3.70
2023-10-10T06:25:46.942Z,3.77
2023-10-10T06:28:25.947Z,3.70
2023-10-10T06:30:54.998Z,3.80
2023-10-10T06:33:29.558Z,3.67
2023-10-10T06:36:29.172Z,3.60
2023-10-10T06:39:18.041Z,3.50
2023-10-10T06:41:51.561Z,4.73
2023-10-10T06:44:34.168Z,4.30
2023-10-10T06:47:09.678Z,4.47
2023-10-10T06:49:45.429Z,5.40
2023-10-10T06:52:19.280Z,4.10
2023-10-10T06:54:54.753Z,4.33
2023-10-10T06:57:39.215Z,5.00
2023-10-10T07:00:30.086Z,4.80
2023-10-10T07:02:59.082Z,5.47
2023-10-10T07:05:34.706Z,4.83
2023-10-10T07:08:14.747Z,5.33
2023-10-10T07:10:44.105Z,5.40
2023-10-10T07:13:14.727Z,5.50
2023-10-10T07:15:44.074Z,6.17
2023-10-10T07:18:16.552Z,4.60
2023-10-10T07:21:04.630Z,5.43
2023-10-10T07:24:01.162Z,7.50
2023-10-10T07:26:32.026Z,5.27
2023-10-10T07:29:20.206Z,6.00
2023-10-10T07:31:48.253Z,6.03
2023-10-10T07:34:17.413Z,6.43
2023-10-10T07:36:45.807Z,4.50
2023-10-10T07:39:32.870Z,4.97
2023-10-10T07:42:01.083Z,5.70
2023-10-10T07:44:31.269Z,6.47
2023-10-10T07:47:17.072Z,5.00
2023-10-10T07:49:51.682Z,5.70
2023-10-10T07:52:21.425Z,6.50
2023-10-10T07:54:54.664Z,6.30
2023-10-10T07:57:29.508Z,5.10
2023-10-10T07:59:58.286Z,5.50
2023-10-10T08:02:32.761Z,5.67
2023-10-10T08:05:10.277Z,4.97
2023-10-10T08:07:38.651Z,5.10
2023-10-10T08:10:30.406Z,6.40
2023-10-10T08:12:58.610Z,6.00
2023-10-10T08:15:27.075Z,7.23
2023-10-10T08:17:57.217Z,6.33
2023-10-10T08:20:35.851Z,5.93
2023-10-10T08:23:05.749Z,7.87
2023-10-10T08:25:38.870Z,5.80
2023-10-10T08:28:07.113Z,6.33
2023-10-10T08:30:35.395Z,6.17
2023-10-10T08:33:04.234Z,5.60
2023-10-10T08:35:40.158Z,5.63
2023-10-10T08:38:08.699Z,6.37
2023-10-10T08:40:41.908Z,5.60
2023-10-10T08:43:10.264Z,5.43
2023-10-10T08:45:44.818Z,5.73
2023-10-10T08:48:14.667Z,5.90
2023-10-10T08:50:45.828Z,6.13
2023-10-10T08:53:14.778Z,6.87
2023-10-10T08:55:44.585Z,6.30
2023-10-10T08:58:12.815Z,6.63
2023-10-10T09:00:41.294Z,5.40
2023-10-10T09:03:10.199Z,5.80
2023-10-10T09:05:38.703Z,6.00
2023-10-10T09:08:15.329Z,5.17
2023-10-10T09:10:47.292Z,5.97
2023-10-10T09:13:17.796Z,5.83
2023-10-10T09:15:56.029Z,5.80
2023-10-10T09:18:26.784Z,5.40
2023-10-10T09:21:19.034Z,5.70
2023-10-10T09:24:07.795Z,5.40
2023-10-10T09:26:38.508Z,6.47
2023-10-10T09:29:16.682Z,5.97
2023-10-10T09:31:46.748Z,6.40
2023-10-10T09:34:19.542Z,5.70
2023-10-10T09:36:55.926Z,6.00
2023-10-10T09:39:37.461Z,6.00
2023-10-10T09:42:28.953Z,7.07
2023-10-10T09:45:15.841Z,5.63
2023-10-10T09:47:56.799Z,6.00
2023-10-10T09:50:46.456Z,5.50
2023-10-10T09:53:24.460Z,5.73
2023-10-10T09:56:02.379Z,5.03
2023-10-10T09:58:42.781Z,6.03
2023-10-10T10:01:20.118Z,5.87
2023-10-10T10:03:57.010Z,5.63
2023-10-10T10:06:49.313Z,6.20
2023-10-10T10:10:21.554Z,6.57
2023-10-10T10:13:14.777Z,6.10
2023-10-10T10:16:09.644Z,6.07
2023-10-10T10:18:46.425Z,5.73
2023-10-10T10:21:28.812Z,5.70
2023-10-10T10:24:13.934Z,6.57
2023-10-10T10:26:44.583Z,5.53
2023-10-10T10:29:29.633Z,6.07
2023-10-10T10:32:02.370Z,5.30
2023-10-10T10:34:36.130Z,5.03
2023-10-10T10:37:08.849Z,5.70
2023-10-10T10:39:40.106Z,6.20
2023-10-10T10:42:14.008Z,5.20
2023-10-10T10:44:54.726Z,5.40
2023-10-10T10:47:55.622Z,5.17
2023-10-10T10:50:46.659Z,5.43
2023-10-10T10:53:34.942Z,5.30
2023-10-10T10:56:22.574Z,5.77
2023-10-10T10:59:12.127Z,5.20
2023-10-10T11:01:52.376Z,5.50
2023-10-10T11:04:44.043Z,5.70
2023-10-10T11:07:17.243Z,5.40
2023-10-10T11:09:53.944Z,5.10
2023-10-10T11:12:32.349Z,5.27
2023-10-10T11:15:08.745Z,5.27
2023-10-10T11:17:40.959Z,5.10
2023-10-10T11:20:51.520Z,4.90
2023-10-10T11:23:21.871Z,5.13
2023-10-10T11:26:01.419Z,4.90
2023-10-10T11:28:46.555Z,5.40
2023-10-10T11:31:15.341Z,4.67
2023-10-10T11:33:52.009Z,4.80
2023-10-10T11:36:30.181Z,4.93
2023-10-10T11:39:17.803Z,5.30
2023-10-10T11:41:47.594Z,4.60
2023-10-10T11:44:21.059Z,4.87
2023-10-10T11:46:50.788Z,4.37
2023-10-10T11:49:19.900Z,4.70
2023-10-10T11:51:49.246Z,6.43
2023-10-10T11:54:26.158Z,5.37
2023-10-10T11:56:54.236Z,5.30
2023-10-10T11:59:23.442Z,6.10
2023-10-10T12:02:08.447Z,5.07
2023-10-10T12:04:38.943Z,5.00
2023-10-10T12:07:08.362Z,5.40
2023-10-10T12:09:39.826Z,4.83
2023-10-10T12:12:07.969Z,4.63
2023-10-10T12:14:36.126Z,5.03
2023-10-10T12:17:07.269Z,4.60
2023-10-10T12:19:44.543Z,5.00
2023-10-10T12:22:14.794Z,5.13
2023-10-10T12:24:42.907Z,4.60
2023-10-10T12:27:11.238Z,4.63
2023-10-10T12:29:41.482Z,4.40
2023-10-10T12:32:23.370Z,4.50
2023-10-10T12:34:51.547Z,4.90
2023-10-10T12:37:24.244Z,4.70
2023-10-10T12:39:53.471Z,5.30
2023-10-10T12:42:21.477Z,4.83
2023-10-10T12:44:49.552Z,4.67
2023-10-10T12:47:20.287Z,4.67
2023-10-10T12:49:48.307Z,4.20
2023-10-10T12:52:18.274Z,4.57
2023-10-10T12:54:57.990Z,4.63
2023-10-10T12:57:25.973Z,4.10
2023-10-10T13:00:14.036Z,4.97
2023-10-10T13:02:42.206Z,5.40
2023-10-10T13:05:12.326Z,5.07
2023-10-10T13:07:42.429Z,4.30
2023-10-10T13:10:14.211Z,4.80
2023-10-10T13:12:46.260Z,4.90
2023-10-10T13:15:19.518Z,4.13
2023-10-10T13:17:55.469Z,4.63
2023-10-10T13:20:23.822Z,4.43
2023-10-10T13:22:52.404Z,4.63
2023-10-10T13:25:23.115Z,4.63
2023-10-10T13:27:53.256Z,4.73
2023-10-10T13:30:21.441Z,5.10
2023-10-10T13:32:49.497Z,4.80
2023-10-10T13:35:20.958Z,4.30
2023-10-10T13:37:49.139Z,4.70
2023-10-10T13:40:23.790Z,5.07
2023-10-10T13:42:53.244Z,4.57
2023-10-10T13:45:23.665Z,4.83
2023-10-10T13:47:52.183Z,3.87
2023-10-10T13:50:32.236Z,4.43
2023-10-10T13:53:00.998Z,4.23
2023-10-10T13:55:35.029Z,4.03
2023-10-10T13:58:08.341Z,4.73
2023-10-10T14:00:42.658Z,4.67
2023-10-10T14:03:11.099Z,4.37
2023-10-10T14:05:43.044Z,4.00
2023-10-10T14:08:18.909Z,4.43
2023-10-10T14:10:51.273Z,3.70
2023-10-10T14:13:24.762Z,4.27
2023-10-10T14:15:57.414Z,4.00
2023-10-10T14:18:29.144Z,4.33
2023-10-10T14:21:02.251Z,3.67
2023-10-10T14:23:36.394Z,4.60
2023-10-10T14:26:13.725Z,4.10
2023-10-10T14:28:51.259Z,4.17
2023-10-10T14:31:22.213Z,4.30
2023-10-10T14:33:50.959Z,4.67
2023-10-10T14:36:19.774Z,4.20
2023-10-10T14:38:51.074Z,3.90
2023-10-10T14:41:21.918Z,4.30
2023-10-10T14:43:55.562Z,5.27
2023-10-10T14:46:28.284Z,4.47
2023-10-10T14:49:06.318Z,4.40
2023-10-10T14:51:36.569Z,4.47
2023-10-10T14:54:09.676Z,4.33
2023-10-10T14:56:39.238Z,5.33
2023-10-10T14:59:11.694Z,4.40
2023-10-10T15:01:39.737Z,4.20
2023-10-10T15:04:09.737Z,4.93
2023-10-10T15:06:40.767Z,4.20
2023-10-10T15:09:14.572Z,5.17
2023-10-10T15:11:47.617Z,4.90
2023-10-10T15:14:20.071Z,4.60
2023-10-10T15:16:48.501Z,3.97
2023-10-10T15:19:17.053Z,5.40
2023-10-10T15:21:49.280Z,4.57
2023-10-10T15:24:17.438Z,5.40
2023-10-10T15:26:48.798Z,4.47
2023-10-10T15:29:22.199Z,3.80
2023-10-10T15:31:51.284Z,5.20
2023-10-10T15:34:19.782Z,4.67
2023-10-10T15:36:47.850Z,4.30
2023-10-10T15:39:16.877Z,3.87
2023-10-10T15:41:45.822Z,4.70
2023-10-10T15:44:16.312Z,4.17
2023-10-10T15:46:46.102Z,4.50
2023-10-10T15:49:33.198Z,4.27
2023-10-10T15:52:05.253Z,4.00
2023-10-10T15:54:36.112Z,4.50
2023-10-10T15:57:07.537Z,4.17
2023-10-10T15:59:36.702Z,4.73
2023-10-10T16:02:10.322Z,4.90
2023-10-10T16:04:43.289Z,4.90
2023-10-10T16:07:11.856Z,4.90
2023-10-10T16:09:39.850Z,4.47
2023-10-10T16:12:13.491Z,4.90
2023-10-10T16:14:41.609Z,4.27
2023-10-10T16:17:16.683Z,4.13
2023-10-10T16:19:44.974Z,4.40
2023-10-10T16:22:14.362Z,4.37
2023-10-10T16:24:42.403Z,3.83
2023-10-10T16:27:10.466Z,8.90
2023-10-10T16:29:38.498Z,6.97
2023-10-10T16:32:09.414Z,9.23
2023-10-10T16:34:44.167Z,10.97
2023-10-10T16:37:15.380Z,12.83
2023-10-10T16:39:45.826Z,11.63
2023-10-10T16:42:14.844Z,11.70
2023-10-10T16:44:42.933Z,10.57
2023-10-10T16:47:14.957Z,11.13
2023-10-10T16:49:44.294Z,12.17
2023-10-10T16:52:12.468Z,12.80
2023-10-10T16:54:46.905Z,12.10
2023-10-10T16:57:14.961Z,11.43
2023-10-10T16:59:43.969Z,11.60
2023-10-10T17:02:12.702Z,11.43
2023-10-10T17:04:41.253Z,11.60
2023-10-10T17:07:12.327Z,12.10
2023-10-10T17:09:41.174Z,11.57
2023-10-10T17:12:09.406Z,12.20
2023-10-10T17:14:38.521Z,11.60
2023-10-10T17:17:06.768Z,11.30
2023-10-10T17:19:36.715Z,12.80
2023-10-10T17:22:04.881Z,11.13
2023-10-10T17:24:34.238Z,10.23
2023-10-10T17:27:07.544Z,10.90
2023-10-10T17:29:36.881Z,10.67
2023-10-10T17:32:06.863Z,11.33
2023-10-10T17:34:35.012Z,11.43
2023-10-10T17:37:09.559Z,12.07
2023-10-10T17:39:38.919Z,10.90
2023-10-10T17:42:08.030Z,10.77
2023-10-10T17:44:38.916Z,10.60
2023-10-10T17:47:07.469Z,11.30
2023-10-10T17:49:35.962Z,11.40
2023-10-10T17:52:04.364Z,10.83
2023-10-10T17:54:32.505Z,10.60
2023-10-10T17:57:01.930Z,10.53
2023-10-10T17:59:32.131Z,10.33
2023-10-10T18:02:00.707Z,11.27
2023-10-10T18:04:29.364Z,10.67
2023-10-10T18:07:00.910Z,10.23
2023-10-10T18:09:33.285Z,10.30
2023-10-10T18:12:03.493Z,9.60
2023-10-10T18:14:31.884Z,10.50
2023-10-10T18:16:59.882Z,9.90
2023-10-10T18:19:28.645Z,10.83
2023-10-10T18:21:56.750Z,10.77
2023-10-10T18:24:28.238Z,10.93
2023-10-10T18:26:57.272Z,9.50
2023-10-10T18:29:27.548Z,9.80
2023-10-10T18:31:58.951Z,9.90
2023-10-10T18:34:26.982Z,10.03
2023-10-10T18:36:55.012Z,10.50
2023-10-10T18:39:27.620Z,9.77
2023-10-10T18:41:55.794Z,9.23
2023-10-10T18:44:25.850Z,10.87
2023-10-10T18:46:53.873Z,10.40
2023-10-10T18:49:22.960Z,9.57
2023-10-10T18:51:51.194Z,9.00
2023-10-10T18:54:20.269Z,9.90
2023-10-10T18:56:50.835Z,9.07
2023-10-10T18:59:19.089Z,9.40
2023-10-10T19:01:49.630Z,10.03
2023-10-10T19:04:19.569Z,8.30
2023-10-10T19:06:51.264Z,9.23
2023-10-10T19:09:23.998Z,8.67
2023-10-10T19:11:55.590Z,9.80
2023-10-10T19:14:23.776Z,8.23
2023-10-10T19:16:54.162Z,8.50
2023-10-10T19:19:22.230Z,9.67
2023-10-10T19:21:50.263Z,8.90
2023-10-10T19:24:21.321Z,9.70
2023-10-10T19:26:49.427Z,8.40
2023-10-10T19:29:18.471Z,9.17
2023-10-10T19:31:46.564Z,9.20
2023-10-10T19:34:16.902Z,9.60
2023-10-10T19:36:45.772Z,8.43
2023-10-10T19:39:16.519Z,8.70
2023-10-10T19:41:44.755Z,9.10
2023-10-10T19:44:15.897Z,8.70
2023-10-10T19:46:45.347Z,9.13
2023-10-10T19:49:15.416Z,8.77
2023-10-10T19:51:45.467Z,8.37
2023-10-10T19:54:14.155Z,8.70
2023-10-10T19:56:43.923Z,7.73
2023-10-10T19:59:12.013Z,8.40
2023-10-10T20:01:40.098Z,8.27
2023-10-10T20:04:08.593Z,7.07
2023-10-10T20:06:38.243Z,8.03
2023-10-10T20:09:11.535Z,8.67
2023-10-10T20:11:41.603Z,8.60
2023-10-10T20:14:10.519Z,8.10
2023-10-10T20:16:39.554Z,7.50
2023-10-10T20:19:08.190Z,8.40
2023-10-10T20:21:37.622Z,7.17
2023-10-10T20:24:09.328Z,8.57
2023-10-10T20:26:37.778Z,8.70
2023-10-10T20:29:10.433Z,8.30
2023-10-10T20:31:38.388Z,7.33
2023-10-10T20:34:06.452Z,7.83
2023-10-10T20:36:37.717Z,7.80
2023-10-10T20:39:07.632Z,7.70
2023-10-10T20:41:35.745Z,8.10
2023-10-10T20:44:03.809Z,8.80
2023-10-10T20:46:32.538Z,6.87
2023-10-10T20:49:01.499Z,7.47
2023-10-10T20:51:29.516Z,7.47
2023-10-10T20:53:57.866Z,9.37
2023-10-10T20:56:28.565Z,7.50
2023-10-10T20:58:56.557Z,7.17
2023-10-10T21:01:24.588Z,7.83
2023-10-10T21:03:52.712Z,6.70
2023-10-10T21:06:21.746Z,7.70
2023-10-10T21:08:50.271Z,7.10
2023-10-10T21:11:18.465Z,7.10
2023-10-10T21:13:48.000Z,7.90
2023-10-10T21:16:17.212Z,7.13
2023-10-10T21:18:47.426Z,6.93
2023-10-10T21:21:16.103Z,7.83
2023-10-10T21:23:44.619Z,6.97
2023-10-10T21:26:15.046Z,6.57
2023-10-10T21:28:43.833Z,7.77
2023-10-10T21:31:13.545Z,6.90
2023-10-10T21:33:44.756Z,6.90
2023-10-10T21:36:13.781Z,7.57
2023-10-10T21:38:42.055Z,7.67
2023-10-10T21:41:10.932Z,7.60
2023-10-10T21:43:39.723Z,7.40
2023-10-10T21:46:08.159Z,7.60
2023-10-10T21:48:37.837Z,6.53
2023-10-10T21:51:08.431Z,6.80
2023-10-10T21:53:38.448Z,6.97
2023-10-10T21:56:07.629Z,6.77
2023-10-10T21:58:39.431Z,6.97
2023-10-10T22:01:07.684Z,7.20
2023-10-10T22:03:38.722Z,6.20
2023-10-10T22:06:08.516Z,7.30
2023-10-10T22:08:37.459Z,6.20
2023-10-10T22:11:08.774Z,6.80
2023-10-10T22:13:37.555Z,6.60
2023-10-10T22:16:06.443Z,6.40
2023-10-10T22:18:34.590Z,6.17
2023-10-10T22:21:04.288Z,5.83
2023-10-10T22:23:32.460Z,7.00
2023-10-10T22:26:03.654Z,6.20
2023-10-10T22:28:32.766Z,6.60
2023-10-10T22:31:00.951Z,6.97
2023-10-10T22:33:29.298Z,6.70
2023-10-10T22:35:57.521Z,6.47
2023-10-10T22:38:26.919Z,6.00
2023-10-10T22:40:56.814Z,6.67
2023-10-10T22:43:26.340Z,7.30
2023-10-10T22:45:54.342Z,6.23
2023-10-10T22:48:22.813Z,6.40
2023-10-10T22:50:53.858Z,6.10
2023-10-10T22:53:22.121Z,5.37
2023-10-10T22:55:51.985Z,5.87
2023-10-10T22:58:21.243Z,5.70
2023-10-10T23:00:49.596Z,6.73
2023-10-10T23:03:20.554Z,6.80
2023-10-10T23:05:49.097Z,5.27
2023-10-10T23:08:18.948Z,5.30
2023-10-10T23:10:49.188Z,5.07
2023-10-10T23:13:18.649Z,5.93
2023-10-10T23:15:50.143Z,6.33
2023-10-10T23:18:19.007Z,5.53
2023-10-10T23:20:47.762Z,5.90
2023-10-10T23:23:16.945Z,6.30
2023-10-10T23:25:45.334Z,5.93
2023-10-10T23:28:13.394Z,5.93
2023-10-10T23:30:43.401Z,5.60
2023-10-10T23:33:14.068Z,5.53
2023-10-10T23:35:43.032Z,5.90
2023-10-10T23:38:11.798Z,5.63
2023-10-10T23:40:41.946Z,5.43
2023-10-10T23:43:12.034Z,6.40
2023-10-10T23:45:43.094Z,6.30
2023-10-10T23:48:16.702Z,6.47
2023-10-10T23:50:45.626Z,5.40
2023-10-10T23:53:15.021Z,5.70
2023-10-10T23:55:47.568Z,5.03
2023-10-10T23:58:16.330Z,5.30
